createdAt,value
2018-09-29T00:00:53.930Z,98068.50
2018-09-29T00:03:23.043Z,98062.22
2018-09-29T00:05:52.380Z,98064.14
2018-09-29T00:08:21.483Z,98061.02
2018-09-29T00:10:50.763Z,98065.59
2018-09-29T00:13:19.947Z,98067.56
2018-09-29T00:15:49.019Z,98068.67
2018-09-29T00:18:18.096Z,98069.59
2018-09-29T00:20:47.447Z,98065.78
2018-09-29T00:23:16.502Z,98060.31
2018-09-29T00:25:45.482Z,98060.94
2018-09-29T00:28:14.636Z,98061.14
2018-09-29T00:30:43.863Z,98061.36
2018-09-29T00:33:12.816Z,98059.22
2018-09-29T00:35:41.880Z,98055.67
2018-09-29T00:38:11.201Z,98045.89
2018-09-29T00:40:40.212Z,98046.44
2018-09-29T00:43:09.366Z,98048.89
2018-09-29T00:45:38.595Z,98040.25
2018-09-29T00:48:07.607Z,98032.81
2018-09-29T00:50:36.988Z,98030.84
2018-09-29T00:53:06.004Z,98033.86
2018-09-29T00:55:35.323Z,98022.81
2018-09-29T00:58:04.501Z,98022.05
2018-09-29T01:00:33.695Z,98017.47
2018-09-29T01:03:02.829Z,98028.16
2018-09-29T01:05:32.027Z,98033.20
2018-09-29T01:08:01.125Z,98028.92
2018-09-29T01:10:30.175Z,98026.64
2018-09-29T01:12:59.409Z,98030.09
2018-09-29T01:15:28.408Z,98028.77
2018-09-29T01:17:57.659Z,98030.41
2018-09-29T01:20:26.971Z,98029.37
2018-09-29T01:22:56.251Z,98027.83
2018-09-29T01:25:25.591Z,98022.81
2018-09-29T01:27:54.804Z,98023.78
2018-09-29T01:30:24.306Z,98024.72
2018-09-29T01:32:53.236Z,98021.97
2018-09-29T01:35:22.604Z,98015.39
2018-09-29T01:37:51.920Z,98010.19
2018-09-29T01:40:21.287Z,98014.33
2018-09-29T01:42:50.530Z,98010.49
2018-09-29T01:45:19.662Z,98006.73
2018-09-29T01:47:48.591Z,98006.58
2018-09-29T01:50:17.576Z,98003.36
2018-09-29T01:52:46.862Z,98002.86
2018-09-29T01:55:15.901Z,97996.70
2018-09-29T01:57:45.115Z,97995.70
2018-09-29T02:00:14.143Z,97994.16
2018-09-29T02:02:43.406Z,98000.67
2018-09-29T02:05:12.564Z,97999.75
2018-09-29T02:07:41.853Z,97996.14
2018-09-29T02:10:11.360Z,97998.66
2018-09-29T02:12:40.297Z,97998.05
2018-09-29T02:15:09.671Z,98002.91
2018-09-29T02:17:38.988Z,97997.16
2018-09-29T02:20:08.239Z,97998.16
2018-09-29T02:22:37.179Z,97998.47
2018-09-29T02:25:06.526Z,97993.72
2018-09-29T02:27:35.395Z,97999.31
2018-09-29T02:30:04.715Z,98002.48
2018-09-29T02:32:33.784Z,97993.19
2018-09-29T02:35:02.909Z,97997.23
2018-09-29T02:37:32.291Z,97996.63
2018-09-29T02:40:01.556Z,98000.19
2018-09-29T02:42:30.871Z,97998.61
2018-09-29T02:45:00.010Z,97991.28
2018-09-29T02:47:29.278Z,97993.73
2018-09-29T02:49:58.596Z,97986.72
2018-09-29T02:52:27.912Z,97986.94
2018-09-29T02:54:57.169Z,97982.52
2018-09-29T02:57:26.046Z,97968.21
2018-09-29T02:59:55.383Z,97973.28
2018-09-29T03:02:24.783Z,97964.74
2018-09-29T03:04:54.244Z,97960.14
2018-09-29T03:07:23.637Z,97967.18
2018-09-29T03:09:52.844Z,97972.09
2018-09-29T03:12:22.048Z,97970.39
2018-09-29T03:14:51.383Z,97968.88
2018-09-29T03:17:20.678Z,97966.30
2018-09-29T03:19:49.989Z,97972.08
2018-09-29T03:22:19.084Z,97980.03
2018-09-29T03:24:48.407Z,97984.62
2018-09-29T03:27:17.586Z,97974.16
2018-09-29T03:29:46.777Z,97972.14
2018-09-29T03:32:16.010Z,97976.90
2018-09-29T03:34:45.167Z,97983.84
2018-09-29T03:37:14.039Z,97977.34
2018-09-29T03:39:42.848Z,97976.91
2018-09-29T03:42:11.891Z,97976.25
2018-09-29T03:44:41.231Z,97974.25
2018-09-29T03:47:10.483Z,97978.48
2018-09-29T03:49:39.397Z,97978.11
2018-09-29T03:52:08.672Z,97981.66
2018-09-29T03:54:37.899Z,97977.44
2018-09-29T03:57:06.839Z,97981.73
2018-09-29T03:59:35.879Z,97980.78
2018-09-29T04:02:05.067Z,97977.24
2018-09-29T04:04:34.092Z,97974.30
2018-09-29T04:07:03.304Z,97965.69
2018-09-29T04:09:32.643Z,97965.48
2018-09-29T04:12:02.016Z,97965.15
2018-09-29T04:14:31.208Z,97966.13
2018-09-29T04:17:00.501Z,97963.58
2018-09-29T04:19:30.026Z,97964.89
2018-09-29T04:21:59.251Z,97966.18
2018-09-29T04:24:28.546Z,97970.83
2018-09-29T04:26:57.647Z,97960.28
2018-09-29T04:29:26.934Z,97959.78
2018-09-29T04:31:56.189Z,97964.70
2018-09-29T04:34:25.402Z,97965.19
2018-09-29T04:36:54.723Z,97965.52
2018-09-29T04:39:23.708Z,97969.12
2018-09-29T04:41:52.872Z,97967.94
2018-09-29T04:44:22.162Z,97963.78
2018-09-29T04:46:51.472Z,97965.86
2018-09-29T04:49:20.571Z,97964.78
2018-09-29T04:51:49.455Z,97966.53
2018-09-29T04:54:18.547Z,97964.55
2018-09-29T04:56:48.073Z,97962.20
2018-09-29T04:59:17.448Z,97960.49
2018-09-29T05:01:46.596Z,97957.25
2018-09-29T05:04:15.908Z,97960.02
2018-09-29T05:06:44.995Z,97951.15
2018-09-29T05:09:14.000Z,97957.73
2018-09-29T05:11:43.183Z,97956.50
2018-09-29T05:14:12.335Z,97956.44
2018-09-29T05:16:41.440Z,97955.02
2018-09-29T05:19:10.640Z,97954.50
2018-09-29T05:21:40.034Z,97953.72
2018-09-29T05:24:09.384Z,97952.45
2018-09-29T05:26:38.566Z,97954.91
2018-09-29T05:29:07.618Z,97955.20
2018-09-29T05:31:36.804Z,97947.95
2018-09-29T05:34:06.025Z,97952.14
2018-09-29T05:36:35.417Z,97955.55
2018-09-29T05:39:05.783Z,97954.93
2018-09-29T05:41:35.086Z,97945.81
2018-09-29T05:44:04.389Z,97949.14
2018-09-29T05:46:33.741Z,97943.98
2018-09-29T05:49:03.143Z,97945.19
2018-09-29T05:51:32.591Z,97952.86
2018-09-29T05:54:01.857Z,97961.64
2018-09-29T05:56:31.128Z,97966.14
2018-09-29T05:59:00.339Z,97973.73
2018-09-29T06:01:29.702Z,97968.19
2018-09-29T06:03:59.029Z,97966.87
2018-09-29T06:06:31.088Z,97966.87
2018-09-29T06:09:01.172Z,97964.20
2018-09-29T06:11:30.984Z,97970.77
2018-09-29T06:14:00.308Z,97976.38
2018-09-29T06:16:29.545Z,97972.72
2018-09-29T06:18:58.872Z,97976.94
2018-09-29T06:21:28.235Z,97983.39
2018-09-29T06:23:57.340Z,97983.42
2018-09-29T06:26:26.575Z,97990.47
2018-09-29T06:28:55.967Z,97992.88
2018-09-29T06:31:24.968Z,97986.30
2018-09-29T06:33:54.159Z,97985.92
2018-09-29T06:36:22.994Z,97976.67
2018-09-29T06:38:51.978Z,97980.38
2018-09-29T06:41:21.093Z,97970.74
2018-09-29T06:43:50.375Z,97965.14
2018-09-29T06:46:19.735Z,97970.70
2018-09-29T06:48:49.093Z,97980.57
2018-09-29T06:51:18.165Z,97984.55
2018-09-29T06:53:47.432Z,97982.75
2018-09-29T06:56:16.735Z,97977.16
2018-09-29T06:58:45.871Z,97982.16
2018-09-29T07:01:15.157Z,97989.23
2018-09-29T07:03:44.315Z,97994.35
2018-09-29T07:06:13.620Z,97992.98
2018-09-29T07:08:42.680Z,97995.39
2018-09-29T07:11:12.037Z,98002.00
2018-09-29T07:13:41.020Z,98007.53
2018-09-29T07:16:09.963Z,98005.80
2018-09-29T07:18:39.116Z,98006.05
2018-09-29T07:21:08.281Z,98011.78
2018-09-29T07:23:37.538Z,98001.22
2018-09-29T07:26:06.493Z,97999.58
2018-09-29T07:28:35.785Z,98001.74
2018-09-29T07:31:05.117Z,97996.48
2018-09-29T07:33:34.288Z,97999.59
2018-09-29T07:36:03.537Z,98004.05
2018-09-29T07:38:33.761Z,98007.98
2018-09-29T07:41:02.983Z,98008.61
2018-09-29T07:43:32.188Z,98005.58
2018-09-29T07:46:01.452Z,98001.47
2018-09-29T07:48:30.682Z,97995.44
2018-09-29T07:50:59.991Z,97999.19
2018-09-29T07:53:29.065Z,98001.09
2018-09-29T07:55:58.401Z,98005.48
2018-09-29T07:58:27.730Z,98007.50
2018-09-29T08:00:57.043Z,97998.81
2018-09-29T08:03:26.242Z,98002.78
2018-09-29T08:05:55.613Z,98000.78
2018-09-29T08:08:24.781Z,97988.55
2018-09-29T08:10:53.739Z,97988.45
2018-09-29T08:13:22.632Z,97989.77
2018-09-29T08:15:51.709Z,97985.92
2018-09-29T08:18:20.938Z,97990.42
2018-09-29T08:20:50.295Z,97990.03
2018-09-29T08:23:19.434Z,97985.05
2018-09-29T08:25:49.531Z,97988.11
2018-09-29T08:28:18.433Z,97990.38
2018-09-29T08:30:47.439Z,97988.52
2018-09-29T08:33:16.696Z,97991.09
2018-09-29T08:35:45.992Z,97983.77
2018-09-29T08:38:15.223Z,97984.88
2018-09-29T08:40:45.107Z,97985.47
2018-09-29T08:43:14.204Z,97981.67
2018-09-29T08:45:43.547Z,97974.34
2018-09-29T08:48:12.889Z,97983.45
2018-09-29T08:50:41.877Z,97981.25
2018-09-29T08:53:11.120Z,97976.34
2018-09-29T08:55:40.335Z,97986.42
2018-09-29T08:58:09.619Z,97977.59
2018-09-29T09:00:38.994Z,97984.44
2018-09-29T09:03:07.991Z,97978.83
2018-09-29T09:05:37.143Z,97980.14
2018-09-29T09:08:06.196Z,97977.88
2018-09-29T09:10:35.220Z,97974.81
2018-09-29T09:13:05.325Z,97976.61
2018-09-29T09:15:34.396Z,97975.01
2018-09-29T09:18:03.715Z,97973.16
2018-09-29T09:20:32.951Z,97970.69
2018-09-29T09:23:02.531Z,97973.69
2018-09-29T09:25:31.731Z,97978.94
2018-09-29T09:28:00.741Z,97976.08
2018-09-29T09:30:30.029Z,97975.11
2018-09-29T09:32:59.243Z,97978.55
2018-09-29T09:35:28.556Z,97978.55
2018-09-29T09:37:57.482Z,97979.48
2018-09-29T09:40:26.839Z,97974.53
2018-09-29T09:42:55.702Z,97979.64
2018-09-29T09:45:24.680Z,97988.93
2018-09-29T09:47:53.615Z,97984.62
2018-09-29T09:50:22.938Z,97979.80
2018-09-29T09:52:52.104Z,97976.73
2018-09-29T09:55:21.060Z,97978.23
2018-09-29T09:57:50.427Z,97985.23
2018-09-29T10:00:19.735Z,97986.70
2018-09-29T10:03:57.717Z,97984.55
2018-09-29T10:06:27.040Z,97977.14
2018-09-29T10:08:56.295Z,97975.16
2018-09-29T10:11:25.529Z,97973.28
2018-09-29T10:13:54.749Z,97969.77
2018-09-29T10:16:24.723Z,97965.72
2018-09-29T10:18:53.645Z,97969.07
2018-09-29T10:21:22.539Z,97969.28
2018-09-29T10:23:51.863Z,97960.35
2018-09-29T10:26:21.192Z,97961.33
2018-09-29T10:28:50.644Z,97967.61
2018-09-29T10:31:19.575Z,97961.23
2018-09-29T10:33:48.951Z,97965.73
2018-09-29T10:36:18.344Z,97965.81
2018-09-29T10:38:47.499Z,97965.30
2018-09-29T10:41:16.751Z,97968.05
2018-09-29T10:43:45.731Z,97960.00
2018-09-29T10:46:15.041Z,97965.92
2018-09-29T10:48:44.376Z,97962.39
2018-09-29T10:51:13.626Z,97960.56
2018-09-29T10:53:42.739Z,97969.38
2018-09-29T10:56:11.998Z,97964.52
2018-09-29T10:58:41.240Z,97962.09
2018-09-29T11:01:10.192Z,97962.95
2018-09-29T11:03:39.311Z,97959.16
2018-09-29T11:06:08.603Z,97958.00
2018-09-29T11:08:37.760Z,97954.19
2018-09-29T11:11:07.162Z,97950.87
2018-09-29T11:13:36.439Z,97945.25
2018-09-29T11:16:05.500Z,97939.17
2018-09-29T11:18:34.379Z,97929.21
2018-09-29T11:21:03.546Z,97930.55
2018-09-29T11:23:32.729Z,97924.84
2018-09-29T11:26:02.133Z,97921.12
2018-09-29T11:28:31.476Z,97922.16
2018-09-29T11:31:00.935Z,97918.08
2018-09-29T11:33:30.030Z,97919.17
2018-09-29T11:35:59.418Z,97924.33
2018-09-29T11:38:28.829Z,97921.91
2018-09-29T11:40:58.241Z,97917.56
2018-09-29T11:43:28.352Z,97919.47
2018-09-29T11:45:57.979Z,97917.98
2018-09-29T11:48:27.232Z,97916.08
2018-09-29T11:50:57.197Z,97917.25
2018-09-29T11:53:26.694Z,97920.09
2018-09-29T11:55:56.598Z,97918.98
2018-09-29T11:58:25.681Z,97914.64
2018-09-29T12:00:55.094Z,97913.52
2018-09-29T12:03:24.565Z,97915.24
2018-09-29T12:05:53.852Z,97917.33
2018-09-29T12:08:23.095Z,97920.09
2018-09-29T12:10:52.142Z,97911.67
2018-09-29T12:13:21.373Z,97910.71
2018-09-29T12:15:50.740Z,97913.58
2018-09-29T12:18:20.087Z,97906.54
2018-09-29T12:20:49.392Z,97903.63
2018-09-29T12:23:18.882Z,97902.79
2018-09-29T12:25:47.779Z,97898.47
2018-09-29T12:28:17.162Z,97902.03
2018-09-29T12:30:46.267Z,97896.92
2018-09-29T12:33:15.542Z,97900.42
2018-09-29T12:35:45.089Z,97899.77
2018-09-29T12:38:14.427Z,97907.09
2018-09-29T12:40:43.384Z,97914.50
2018-09-29T12:43:12.411Z,97909.94
2018-09-29T12:45:41.758Z,97917.44
2018-09-29T12:48:11.003Z,97906.47
2018-09-29T12:50:40.252Z,97908.16
2018-09-29T12:53:09.717Z,97904.59
2018-09-29T12:55:38.977Z,97902.79
2018-09-29T12:58:08.130Z,97898.15
2018-09-29T13:00:37.363Z,97894.53
2018-09-29T13:03:06.703Z,97890.65
2018-09-29T13:05:35.796Z,97889.32
2018-09-29T13:08:06.072Z,97884.11
2018-09-29T13:10:35.399Z,97883.09
2018-09-29T13:13:04.574Z,97880.13
2018-09-29T13:15:33.827Z,97879.20
2018-09-29T13:18:02.959Z,97880.54
2018-09-29T13:20:32.195Z,97876.16
2018-09-29T13:23:01.176Z,97882.80
2018-09-29T13:25:30.219Z,97883.27
2018-09-29T13:27:59.543Z,97879.78
2018-09-29T13:30:29.044Z,97881.00
2018-09-29T13:32:58.083Z,97883.02
2018-09-29T13:35:27.172Z,97879.60
2018-09-29T13:37:56.314Z,97878.83
2018-09-29T13:40:25.687Z,97880.05
2018-09-29T13:42:54.790Z,97875.41
2018-09-29T13:45:24.205Z,97872.51
2018-09-29T13:47:53.587Z,97871.09
2018-09-29T13:50:22.599Z,97874.20
2018-09-29T13:52:52.028Z,97871.75
2018-09-29T13:55:21.073Z,97879.81
2018-09-29T13:57:50.402Z,97877.45
2018-09-29T14:00:19.719Z,97878.69
2018-09-29T14:02:49.052Z,97883.61
2018-09-29T14:05:18.387Z,97883.61
2018-09-29T14:07:47.570Z,97888.35
2018-09-29T14:10:16.771Z,97890.64
2018-09-29T14:12:45.707Z,97889.11
2018-09-29T14:15:14.647Z,97894.56
2018-09-29T14:17:43.971Z,97891.53
2018-09-29T14:20:13.208Z,97902.81
2018-09-29T14:22:42.291Z,97901.02
2018-09-29T14:25:11.735Z,97903.67
2018-09-29T14:27:41.012Z,97904.91
2018-09-29T14:30:10.352Z,97904.81
2018-09-29T14:32:39.760Z,97904.90
2018-09-29T14:35:09.076Z,97906.48
2018-09-29T14:37:38.231Z,97905.81
2018-09-29T14:40:07.789Z,97902.29
2018-09-29T14:42:37.141Z,97907.81
2018-09-29T14:45:06.499Z,97910.13
2018-09-29T14:47:35.721Z,97915.23
2018-09-29T14:50:05.192Z,97913.70
2018-09-29T14:52:34.117Z,97913.92
2018-09-29T14:55:03.383Z,97914.34
2018-09-29T14:57:33.660Z,97913.86
2018-09-29T15:00:03.671Z,97910.55
2018-09-29T15:02:32.815Z,97912.23
2018-09-29T15:05:02.264Z,97911.28
2018-09-29T15:07:32.219Z,97914.54
2018-09-29T15:10:01.471Z,97918.33
2018-09-29T15:12:30.627Z,97919.95
2018-09-29T15:15:00.158Z,97919.40
2018-09-29T15:17:29.067Z,97923.18
2018-09-29T15:19:58.334Z,97920.26
2018-09-29T15:22:27.310Z,97929.91
2018-09-29T15:24:56.610Z,97935.66
2018-09-29T15:27:26.116Z,97932.20
2018-09-29T15:29:55.369Z,97933.50
2018-09-29T15:32:24.617Z,97935.55
2018-09-29T15:34:54.494Z,97942.43
2018-09-29T15:37:23.475Z,97940.18
2018-09-29T15:39:53.792Z,97945.94
2018-09-29T15:42:23.092Z,97943.07
2018-09-29T15:44:52.281Z,97945.36
2018-09-29T15:47:21.519Z,97949.79
2018-09-29T15:49:50.757Z,97947.38
2018-09-29T15:52:20.134Z,97948.34
2018-09-29T15:54:49.529Z,97949.88
2018-09-29T15:57:23.219Z,97945.50
2018-09-29T15:59:52.904Z,97947.10
2018-09-29T16:02:22.200Z,97945.02
2018-09-29T16:04:51.395Z,97950.41
2018-09-29T16:07:20.951Z,97953.70
2018-09-29T16:09:51.031Z,97954.44
2018-09-29T16:12:20.576Z,97958.27
2018-09-29T16:14:49.944Z,97955.11
2018-09-29T16:17:19.153Z,97962.64
2018-09-29T16:19:48.677Z,97964.28
2018-09-29T16:22:17.887Z,97969.15
2018-09-29T16:24:47.156Z,97967.30
2018-09-29T16:27:16.111Z,97968.48
2018-09-29T16:29:45.167Z,97970.36
2018-09-29T16:32:14.483Z,97960.95
2018-09-29T16:34:43.519Z,97973.02
2018-09-29T16:37:12.623Z,97964.56
2018-09-29T16:39:42.608Z,97967.92
2018-09-29T16:42:12.525Z,97967.52
2018-09-29T16:44:41.847Z,97970.40
2018-09-29T16:47:11.168Z,97974.80
2018-09-29T16:49:40.685Z,97970.84
2018-09-29T16:52:10.015Z,97974.44
2018-09-29T16:54:39.247Z,97977.25
2018-09-29T16:57:08.664Z,97982.22
2018-09-29T16:59:38.284Z,97981.77
2018-09-29T17:02:07.478Z,97991.80
2018-09-29T17:04:37.071Z,97994.83
2018-09-29T17:07:06.467Z,97996.45
2018-09-29T17:09:35.475Z,97999.61
2018-09-29T17:12:05.018Z,98005.88
2018-09-29T17:14:35.016Z,98010.00
2018-09-29T17:17:05.783Z,98015.86
2018-09-29T17:19:34.975Z,98022.90
2018-09-29T17:22:04.205Z,98020.59
2018-09-29T17:24:33.656Z,98023.48
2018-09-29T17:27:03.211Z,98028.20
2018-09-29T17:29:32.533Z,98029.77
2018-09-29T17:32:01.822Z,98025.17
2018-09-29T17:34:31.244Z,98026.17
2018-09-29T17:37:01.645Z,98021.05
2018-09-29T17:39:30.905Z,98025.17
2018-09-29T17:42:01.729Z,98032.56
2018-09-29T17:44:35.829Z,98046.78
2018-09-29T17:47:06.263Z,98056.90
2018-09-29T17:49:36.409Z,98055.50
2018-09-29T17:52:06.642Z,98053.56
2018-09-29T17:54:36.267Z,98064.98
2018-09-29T17:57:07.243Z,98068.38
2018-09-29T17:59:36.807Z,98065.52
2018-09-29T18:02:06.520Z,98069.55
2018-09-29T18:04:39.942Z,98074.43
2018-09-29T18:07:12.418Z,98068.53
2018-09-29T18:09:42.311Z,98070.55
2018-09-29T18:12:16.729Z,98067.73
2018-09-29T18:14:47.473Z,98073.63
2018-09-29T18:17:16.869Z,98085.67
2018-09-29T18:19:46.780Z,98081.30
2018-09-29T18:22:16.852Z,98086.28
2018-09-29T18:24:46.855Z,98091.91
2018-09-29T18:27:16.310Z,98094.33
2018-09-29T18:29:45.718Z,98098.94
2018-09-29T18:32:19.026Z,98103.30
2018-09-29T18:34:49.635Z,98094.73
2018-09-29T18:37:20.167Z,98102.55
2018-09-29T18:39:49.503Z,98101.34
2018-09-29T18:42:18.967Z,98106.25
2018-09-29T18:44:48.785Z,98097.27
2018-09-29T18:47:18.176Z,98103.30
2018-09-29T18:49:52.779Z,98110.30
2018-09-29T18:52:24.916Z,98114.44
2018-09-29T18:54:55.350Z,98114.10
2018-09-29T18:57:24.593Z,98120.98
2018-09-29T18:59:53.908Z,98120.00
2018-09-29T19:02:23.213Z,98120.45
2018-09-29T19:04:52.402Z,98122.11
2018-09-29T19:07:21.767Z,98122.89
2018-09-29T19:09:50.955Z,98127.39
2018-09-29T19:12:20.052Z,98127.77
2018-09-29T19:14:49.249Z,98128.86
2018-09-29T19:17:18.191Z,98121.62
2018-09-29T19:19:47.589Z,98122.15
2018-09-29T19:22:16.928Z,98125.32
2018-09-29T19:24:45.899Z,98122.42
2018-09-29T19:27:15.116Z,98132.38
2018-09-29T19:29:44.501Z,98132.72
2018-09-29T19:32:13.547Z,98134.16
2018-09-29T19:34:43.199Z,98132.08
2018-09-29T19:37:12.440Z,98135.25
2018-09-29T19:39:41.893Z,98140.19
2018-09-29T19:42:10.848Z,98141.20
2018-09-29T19:44:39.752Z,98137.84
2018-09-29T19:47:08.742Z,98144.98
2018-09-29T19:49:37.950Z,98145.16
2018-09-29T19:52:06.944Z,98150.03
2018-09-29T19:54:36.444Z,98149.24
2018-09-29T19:57:05.835Z,98148.86
2018-09-29T19:59:34.725Z,98145.80
2018-09-29T20:02:04.004Z,98142.78
2018-09-29T20:04:33.174Z,98142.33
2018-09-29T20:07:02.427Z,98143.50
2018-09-29T20:09:31.719Z,98141.20
2018-09-29T20:12:00.823Z,98152.22
2018-09-29T20:14:29.701Z,98147.54
2018-09-29T20:16:58.631Z,98156.37
2018-09-29T20:19:27.993Z,98153.20
2018-09-29T20:21:57.209Z,98156.33
2018-09-29T20:24:26.179Z,98155.92
2018-09-29T20:26:55.338Z,98157.38
2018-09-29T20:29:24.288Z,98155.48
2018-09-29T20:31:53.466Z,98156.86
2018-09-29T20:34:22.728Z,98148.06
2018-09-29T20:36:51.869Z,98148.67
2018-09-29T20:39:21.195Z,98152.70
2018-09-29T20:41:50.181Z,98150.18
2018-09-29T20:44:19.163Z,98155.34
2018-09-29T20:46:48.291Z,98163.27
2018-09-29T20:49:17.557Z,98161.65
2018-09-29T20:51:46.603Z,98168.40
2018-09-29T20:54:15.887Z,98169.53
2018-09-29T20:56:44.928Z,98169.84
2018-09-29T20:59:13.998Z,98170.06
2018-09-29T21:01:43.407Z,98172.77
2018-09-29T21:04:12.611Z,98166.28
2018-09-29T21:06:41.873Z,98172.23
2018-09-29T21:09:11.107Z,98171.91
2018-09-29T21:11:40.380Z,98170.66
2018-09-29T21:14:09.942Z,98187.41
2018-09-29T21:16:38.935Z,98183.66
2018-09-29T21:19:08.208Z,98182.09
2018-09-29T21:21:37.400Z,98184.89
2018-09-29T21:24:06.502Z,98181.45
2018-09-29T21:26:35.640Z,98182.41
2018-09-29T21:29:04.900Z,98182.99
2018-09-29T21:31:34.395Z,98181.48
2018-09-29T21:34:03.738Z,98184.77
2018-09-29T21:36:32.956Z,98186.11
2018-09-29T21:39:02.159Z,98184.14
2018-09-29T21:41:31.480Z,98178.19
2018-09-29T21:44:00.483Z,98181.23
2018-09-29T21:46:29.688Z,98182.67
2018-09-29T21:48:58.951Z,98187.19
2018-09-29T21:51:28.226Z,98183.33
2018-09-29T21:53:57.578Z,98181.09
2018-09-29T21:56:26.979Z,98188.95
2018-09-29T21:58:55.915Z,98202.29
2018-09-29T22:01:32.030Z,98196.66
2018-09-29T22:04:02.218Z,98197.08
2018-09-29T22:06:31.535Z,98201.49
2018-09-29T22:09:00.922Z,98202.80
2018-09-29T22:11:30.228Z,98204.19
2018-09-29T22:13:59.447Z,98208.82
2018-09-29T22:16:28.563Z,98204.20
2018-09-29T22:18:58.104Z,98207.82
2018-09-29T22:21:27.368Z,98208.63
2018-09-29T22:23:56.467Z,98205.77
2018-09-29T22:26:25.624Z,98200.48
2018-09-29T22:28:54.922Z,98201.95
2018-09-29T22:31:24.083Z,98198.00
2018-09-29T22:33:53.257Z,98199.77
2018-09-29T22:36:22.219Z,98196.30
2018-09-29T22:38:51.124Z,98197.61
2018-09-29T22:41:20.151Z,98201.68
2018-09-29T22:43:49.095Z,98193.66
2018-09-29T22:46:18.443Z,98198.94
2018-09-29T22:48:47.743Z,98204.94
2018-09-29T22:51:16.689Z,98211.13
2018-09-29T22:53:45.616Z,98210.15
2018-09-29T22:56:14.893Z,98218.31
2018-09-29T22:58:43.911Z,98216.98
2018-09-29T23:01:13.168Z,98213.45
2018-09-29T23:03:42.407Z,98210.67
2018-09-29T23:06:11.708Z,98213.45
2018-09-29T23:08:40.828Z,98218.20
2018-09-29T23:11:10.012Z,98214.42
2018-09-29T23:13:39.189Z,98219.46
2018-09-29T23:16:08.395Z,98215.81
2018-09-29T23:18:37.720Z,98217.58
2018-09-29T23:21:07.354Z,98223.59
2018-09-29T23:23:36.495Z,98221.82
2018-09-29T23:26:05.701Z,98223.55
2018-09-29T23:28:34.792Z,98229.48
2018-09-29T23:31:03.837Z,98228.34
2018-09-29T23:33:33.223Z,98234.70
2018-09-29T23:36:02.448Z,98236.72
2018-09-29T23:38:31.651Z,98246.90
2018-09-29T23:41:01.101Z,98238.25
2018-09-29T23:43:29.984Z,98241.03
2018-09-29T23:45:59.271Z,98241.03
2018-09-29T23:48:28.303Z,98242.88
2018-09-29T23:50:57.614Z,98240.16
2018-09-29T23:53:26.912Z,98243.39
2018-09-29T23:55:56.112Z,98247.63
2018-09-29T23:58:25.352Z,98249.53
